This is the latest recevied weather packets stored in our database for station/object K7SPS-10. If no packets are shown the sender has not sent any weather packets the latest 10 day(s).
| Time | Temp. | Humidity | Pressure | Rain* | Wind** | Luminosity | Snow |
|---|---|---|---|---|---|---|---|
| 1777790909 | 12.22° C | 63% | 1014.3 hPa | 0 mm | - | 0 W/m² | - |
| 1777790607 | 12.22° C | 63% | 1014.4 hPa | 0 mm | - | 0 W/m² | - |
| 1777790303 | 12.22° C | 63% | 1014.4 hPa | 0 mm | - | 0 W/m² | - |
| 1777790002 | 12.78° C | 61% | 1014.3 hPa | 0 mm | - | 0 W/m² | - |
| 1777789700 | 13.33° C | 58% | 1014.2 hPa | 0 mm | - | 0 W/m² | - |
| 1777789399 | 13.89° C | 58% | 1014.2 hPa | 0 mm | - | 0 W/m² | - |
| 1777789096 | 13.89° C | 59% | 1014.3 hPa | 0 mm | - | 0 W/m² | - |
| 1777788793 | 13.89° C | 58% | 1014.4 hPa | 0 mm | - | 0 W/m² | - |
| 1777788489 | 13.89° C | 58% | 1014 hPa | 0 mm | - | 0 W/m² | - |
| 1777788189 | 13.33° C | 60% | 1014.3 hPa | 0 mm | - | 0 W/m² | - |
| 1777787883 | 12.78° C | 62% | 1014.3 hPa | 0 mm | - | 0 W/m² | - |
| 1777787581 | 13.33° C | 62% | 1014.3 hPa | 0 mm | - | 0 W/m² | - |
| 1777787275 | 13.89° C | 59% | 1014.2 hPa | 0 mm | - | 0 W/m² | - |
| 1777786972 | 14.44° C | 58% | 1014.2 hPa | 0 mm | - | 0 W/m² | - |
| 1777786670 | 13.89° C | 58% | 1013.9 hPa | 0 mm | - | 0 W/m² | - |
| 1777786369 | 14.44° C | 59% | 1014.3 hPa | 0 mm | - | 0 W/m² | - |
| 1777786064 | 14.44° C | 59% | 1014.4 hPa | 0 mm | - | 0 W/m² | - |
| 1777785761 | 15° C | 57% | 1014 hPa | 0 mm | - | 0 W/m² | - |
| 1777785456 | 15° C | 56% | 1014 hPa | 0 mm | - | 0 W/m² | - |
| 1777785154 | 15° C | 58% | 1014.2 hPa | 0 mm | - | 0 W/m² | - |
| 1777784850 | 15° C | 56% | 1013.9 hPa | 0 mm | - | 0 W/m² | - |
| 1777784547 | 15° C | 55% | 1013.9 hPa | 0 mm | - | 0 W/m² | - |
| 1777784244 | 15.56° C | 54% | 1013.8 hPa | 0 mm | - | 0 W/m² | - |
| 1777783942 | 15.56° C | 55% | 1013.9 hPa | 0 mm | - | 0 W/m² | - |
| 1777783638 | 15.56° C | 55% | 1013.9 hPa | 0 mm | - | 0 W/m² | - |
* Rain latest hour (hover to see other rain measurements)
** Current wind speed in m/s (hover to see current wind gust speed)